createdAt,value
2022-12-20T00:01:44.945Z,101556.30
2022-12-20T00:04:12.777Z,101551.41
2022-12-20T00:06:39.806Z,101545.71
2022-12-20T00:09:07.342Z,101535.67
2022-12-20T00:11:34.415Z,101533.38
2022-12-20T00:14:01.064Z,101528.04
2022-12-20T00:16:28.557Z,101526.74
2022-12-20T00:18:57.504Z,101522.94
2022-12-20T00:21:24.248Z,101510.14
2022-12-20T00:23:54.181Z,101501.11
2022-12-20T00:26:22.932Z,101497.55
2022-12-20T00:28:49.595Z,101496.17
2022-12-20T00:31:17.484Z,101491.67
2022-12-20T00:33:48.721Z,101484.92
2022-12-20T00:36:15.571Z,101481.95
2022-12-20T00:38:44.604Z,101478.62
2022-12-20T00:41:13.072Z,101473.23
2022-12-20T00:43:40.175Z,101470.55
2022-12-20T00:46:07.633Z,101468.09
2022-12-20T00:48:34.429Z,101469.02
2022-12-20T00:51:01.574Z,101469.08
2022-12-20T00:53:28.424Z,101473.77
2022-12-20T00:55:55.043Z,101475.79
2022-12-20T00:58:21.933Z,101475.33
2022-12-20T01:00:54.050Z,101479.11
2022-12-20T01:03:23.438Z,101475.17
2022-12-20T01:06:00.560Z,101467.83
2022-12-20T01:08:28.224Z,101464.45
2022-12-20T01:11:06.239Z,101467.50
2022-12-20T01:13:33.459Z,101464.98
2022-12-20T01:16:07.946Z,101460.45
2022-12-20T01:18:34.873Z,101458.86
2022-12-20T01:21:05.761Z,101458.30
2022-12-20T01:23:32.478Z,101451.27
2022-12-20T01:26:02.781Z,101445.88
2022-12-20T01:28:29.553Z,101443.27
2022-12-20T01:30:56.198Z,101444.25
2022-12-20T01:33:23.053Z,101445.16
2022-12-20T01:36:08.842Z,101437.34
2022-12-20T01:38:35.800Z,101439.44
2022-12-20T01:41:02.799Z,101439.59
2022-12-20T01:44:25.145Z,101434.62
2022-12-20T01:46:52.833Z,101412.65
2022-12-20T01:49:20.783Z,101399.68
2022-12-20T01:51:49.772Z,101397.94
2022-12-20T01:54:28.219Z,101390.79
2022-12-20T01:56:57.429Z,101391.45
2022-12-20T01:59:24.438Z,101392.64
2022-12-20T02:01:51.241Z,101387.71
2022-12-20T02:04:17.961Z,101388.88
2022-12-20T02:06:44.677Z,101382.15
2022-12-20T02:09:12.260Z,101372.32
2022-12-20T02:11:41.455Z,101359.74
2022-12-20T02:14:26.923Z,101346.39
2022-12-20T02:17:01.648Z,101335.90
2022-12-20T02:19:47.275Z,101339.51
2022-12-20T02:22:30.899Z,101336.77
2022-12-20T02:25:15.013Z,101328.38
2022-12-20T02:27:54.739Z,101322.05
2022-12-20T02:30:22.882Z,101317.50
2022-12-20T02:33:07.325Z,101313.69
2022-12-20T02:35:35.491Z,101307.51
2022-12-20T02:38:24.558Z,101305.23
2022-12-20T02:40:52.394Z,101302.70
2022-12-20T02:43:38.176Z,101301.41
2022-12-20T02:46:05.059Z,101300.00
2022-12-20T02:48:32.710Z,101296.77
2022-12-20T02:50:59.501Z,101295.13
2022-12-20T02:53:26.243Z,101289.92
2022-12-20T02:55:57.248Z,101295.91
2022-12-20T02:58:32.383Z,101284.15
2022-12-20T03:01:04.594Z,101276.64
2022-12-20T03:03:32.982Z,101271.69
2022-12-20T03:05:59.700Z,101264.52
2022-12-20T03:08:26.481Z,101255.21
2022-12-20T03:10:53.892Z,101249.35
2022-12-20T03:13:21.742Z,101245.42
2022-12-20T03:15:56.049Z,101244.39
2022-12-20T03:18:22.767Z,101240.02
2022-12-20T03:20:49.573Z,101235.80
2022-12-20T03:23:16.558Z,101235.16
2022-12-20T03:25:43.302Z,101240.02
2022-12-20T03:28:11.411Z,101233.92
2022-12-20T03:30:38.214Z,101231.36
2022-12-20T03:33:04.940Z,101232.14
2022-12-20T03:35:31.656Z,101228.20
2022-12-20T03:37:58.509Z,101226.80
2022-12-20T03:40:25.446Z,101222.95
2022-12-20T03:42:52.498Z,101216.81
2022-12-20T03:45:19.189Z,101215.95
2022-12-20T03:47:46.237Z,101207.70
2022-12-20T03:50:12.945Z,101199.51
2022-12-20T03:52:40.314Z,101196.54
2022-12-20T03:55:07.877Z,101184.54
2022-12-20T03:57:40.140Z,101182.55
2022-12-20T04:00:16.435Z,101180.62
2022-12-20T04:02:45.569Z,101174.66
2022-12-20T04:05:12.573Z,101161.38
2022-12-20T04:07:39.310Z,101153.98
2022-12-20T04:10:06.640Z,101142.09
2022-12-20T04:12:33.325Z,101127.94
2022-12-20T04:15:00.388Z,101132.75
2022-12-20T04:17:27.980Z,101122.36
2022-12-20T04:19:55.150Z,101122.20
2022-12-20T04:22:22.245Z,101120.59
2022-12-20T04:24:54.505Z,101117.93
2022-12-20T04:27:26.667Z,101116.73
2022-12-20T04:29:53.845Z,101114.64
2022-12-20T04:32:20.593Z,101112.92
2022-12-20T04:34:47.325Z,101112.31
2022-12-20T04:37:13.971Z,101111.86
2022-12-20T04:39:50.844Z,101108.64
2022-12-20T04:42:26.538Z,101092.36
2022-12-20T04:44:53.641Z,101090.77
2022-12-20T04:47:25.891Z,101091.20
2022-12-20T04:49:53.068Z,101086.11
2022-12-20T04:52:43.494Z,101084.63
2022-12-20T04:55:14.164Z,101075.63
2022-12-20T04:57:40.966Z,101069.11
2022-12-20T05:00:08.358Z,101074.66
2022-12-20T05:02:37.387Z,101073.80
2022-12-20T05:05:09.028Z,101067.08
2022-12-20T05:07:40.822Z,101058.67
2022-12-20T06:23:58.084Z,100946.59
2022-12-20T06:26:25.115Z,100950.28
2022-12-20T06:28:54.742Z,100949.90
2022-12-20T06:31:25.410Z,100940.70
2022-12-20T06:33:53.976Z,100936.33
2022-12-20T06:36:22.399Z,100936.50
2022-12-20T06:38:49.714Z,100935.49
2022-12-20T06:41:16.419Z,100939.42
2022-12-20T06:43:43.173Z,100936.55
2022-12-20T06:46:10.541Z,100940.27
2022-12-20T06:48:37.238Z,100936.19
2022-12-20T06:51:05.372Z,100937.51
2022-12-20T06:53:31.956Z,100933.23
2022-12-20T06:55:59.178Z,100934.09
2022-12-20T06:58:25.825Z,100932.91
2022-12-20T07:00:52.527Z,100926.21
2022-12-20T07:03:19.329Z,100923.66
2022-12-20T07:05:50.964Z,100926.29
2022-12-20T07:08:17.707Z,100919.41
2022-12-20T07:10:44.489Z,100915.96
2022-12-20T07:13:11.164Z,100921.79
2022-12-20T07:15:37.874Z,100917.25
2022-12-20T07:18:04.848Z,100915.79
2022-12-20T07:20:31.539Z,100914.48
2022-12-20T07:23:00.140Z,100916.73
2022-12-20T07:25:26.786Z,100920.78
2022-12-20T07:27:53.453Z,100920.34
2022-12-20T07:30:20.405Z,100916.41
2022-12-20T07:32:47.489Z,100913.48
2022-12-20T07:35:14.360Z,100912.02
2022-12-20T07:37:41.054Z,100911.65
2022-12-20T07:40:09.045Z,100912.54
2022-12-20T07:42:39.167Z,100913.29
2022-12-20T07:45:08.534Z,100911.81
2022-12-20T07:47:35.883Z,100907.67
2022-12-20T07:50:03.190Z,100903.61
2022-12-20T07:52:29.962Z,100906.70
2022-12-20T07:55:01.905Z,100902.19
2022-12-20T07:57:34.947Z,100901.77
2022-12-20T08:00:01.816Z,100892.20
2022-12-20T08:03:02.684Z,100880.21
2022-12-20T08:05:29.465Z,100874.71
2022-12-20T08:07:59.415Z,100871.55
2022-12-20T08:10:26.477Z,100873.88
2022-12-20T08:12:53.114Z,100880.46
2022-12-20T08:15:21.995Z,100882.71
2022-12-20T08:17:49.625Z,100885.74
2022-12-20T08:20:16.574Z,100882.99
2022-12-20T08:22:43.170Z,100888.87
2022-12-20T16:24:55.168Z,100335.52
2022-12-20T16:27:21.841Z,100335.24
2022-12-20T16:29:48.520Z,100337.95
2022-12-20T16:32:19.072Z,100335.11
2022-12-20T16:34:45.914Z,100333.56
2022-12-20T16:37:12.657Z,100338.67
2022-12-20T16:39:39.768Z,100336.19
2022-12-20T16:42:13.116Z,100336.73
2022-12-20T16:44:42.738Z,100324.48
2022-12-20T16:47:10.253Z,100321.69
2022-12-20T16:49:36.991Z,100309.92
2022-12-20T16:52:04.520Z,100295.70
2022-12-20T16:54:31.975Z,100290.06
2022-12-20T16:56:58.672Z,100288.58
2022-12-20T16:59:25.653Z,100288.52
2022-12-20T17:01:53.474Z,100284.91
2022-12-20T17:04:21.198Z,100277.99
2022-12-20T17:06:48.166Z,100277.16
2022-12-20T17:09:16.305Z,100276.53
2022-12-20T17:32:47.812Z,100245.91
2022-12-20T17:35:22.378Z,100235.88
2022-12-20T17:37:50.726Z,100233.95
2022-12-20T17:40:17.624Z,100231.14
2022-12-20T17:42:44.257Z,100236.23
2022-12-20T17:45:31.513Z,100236.20
2022-12-20T17:47:58.418Z,100233.41
2022-12-20T17:50:25.283Z,100232.65
2022-12-20T17:52:52.487Z,100231.44
2022-12-20T17:55:25.101Z,100221.50
2022-12-20T17:57:52.437Z,100212.81
2022-12-20T18:00:24.744Z,100213.88
2022-12-20T18:02:52.084Z,100212.51
2022-12-20T18:05:18.959Z,100208.55
2022-12-20T18:07:50.008Z,100212.81
2022-12-20T18:10:16.800Z,100212.20
2022-12-20T18:12:43.528Z,100202.84
2022-12-20T18:15:10.695Z,100203.51
2022-12-20T18:17:38.239Z,100198.59
2022-12-20T18:20:07.282Z,100193.70
2022-12-20T18:22:34.673Z,100192.07
2022-12-20T18:25:03.736Z,100192.37
2022-12-20T18:27:31.389Z,100194.16
2022-12-20T18:29:58.164Z,100190.52
2022-12-20T18:32:25.141Z,100192.17
2022-12-20T18:34:51.962Z,100188.85
2022-12-20T18:37:18.661Z,100184.40
2022-12-20T18:39:45.391Z,100182.56
2022-12-20T18:42:12.078Z,100183.77
2022-12-20T18:44:38.919Z,100182.05
2022-12-20T18:47:05.714Z,100181.83
2022-12-20T18:49:32.469Z,100179.72
2022-12-20T18:51:59.821Z,100174.00
2022-12-20T18:54:26.687Z,100175.00
2022-12-20T18:56:53.272Z,100179.91
2022-12-20T18:59:21.195Z,100184.95
2022-12-20T19:01:48.076Z,100172.59
2022-12-20T19:04:20.812Z,100167.34
2022-12-20T19:06:50.835Z,100167.20
2022-12-20T19:09:17.506Z,100165.63
2022-12-20T19:11:44.227Z,100157.51
2022-12-20T19:14:11.222Z,100166.69
2022-12-20T19:16:39.629Z,100163.65
2022-12-20T19:19:08.625Z,100162.77
2022-12-20T19:21:36.175Z,100149.77
2022-12-20T19:24:05.647Z,100147.14
2022-12-20T19:26:32.995Z,100149.86
2022-12-20T19:29:00.141Z,100147.81
2022-12-20T19:31:28.903Z,100148.85
2022-12-20T19:33:57.083Z,100145.14
2022-12-20T19:36:38.168Z,100146.70
2022-12-20T19:39:12.426Z,100141.05
2022-12-20T19:41:40.089Z,100139.21
2022-12-20T19:44:07.335Z,100147.08
2022-12-20T19:46:34.200Z,100143.80
2022-12-20T19:49:00.908Z,100134.77
2022-12-20T19:51:27.936Z,100128.67
2022-12-20T19:53:54.914Z,100124.12
2022-12-20T19:56:23.356Z,100121.24
2022-12-20T19:58:50.157Z,100118.00
2022-12-20T20:01:17.906Z,100112.08
2022-12-20T20:03:45.085Z,100112.36
2022-12-20T20:06:12.014Z,100119.83
2022-12-20T20:08:38.620Z,100115.11
2022-12-20T20:11:09.775Z,100115.81
2022-12-20T20:13:37.409Z,100118.14
2022-12-20T20:16:04.694Z,100116.33
2022-12-20T20:18:33.728Z,100111.45
2022-12-20T20:21:00.439Z,100109.69
2022-12-20T20:23:27.233Z,100107.14
2022-12-20T20:25:56.857Z,100101.98
2022-12-20T20:28:31.310Z,100107.46
2022-12-20T20:30:59.200Z,100110.58
2022-12-20T20:33:26.105Z,100110.31
2022-12-20T20:35:54.475Z,100111.92
2022-12-20T20:38:21.268Z,100108.10
2022-12-20T20:40:47.942Z,100112.31
2022-12-20T20:43:14.697Z,100111.11
2022-12-20T20:45:41.376Z,100114.71
2022-12-20T20:48:08.047Z,100116.18
2022-12-20T20:50:34.722Z,100119.76
2022-12-20T20:53:01.437Z,100118.37
2022-12-20T20:55:28.096Z,100122.99
2022-12-20T20:57:54.959Z,100117.06
2022-12-20T21:00:21.602Z,100112.13
2022-12-20T21:02:48.523Z,100112.05
2022-12-20T21:08:02.154Z,100111.77
2022-12-20T21:10:28.992Z,100103.80
2022-12-20T21:12:55.803Z,100100.02
2022-12-20T21:15:24.313Z,100103.20
2022-12-20T21:17:51.396Z,100099.64
2022-12-20T21:20:23.845Z,100100.69
2022-12-20T21:22:52.550Z,100098.51
2022-12-20T21:25:19.275Z,100098.27
2022-12-20T21:27:46.018Z,100097.62
2022-12-20T21:30:13.037Z,100102.80
2022-12-20T21:32:39.805Z,100106.91
2022-12-20T21:35:06.800Z,100107.10
2022-12-20T21:37:33.495Z,100113.40
2022-12-20T21:40:00.175Z,100114.83
2022-12-20T21:42:26.875Z,100114.12
2022-12-20T21:44:53.568Z,100111.10
2022-12-20T21:47:21.341Z,100108.33
2022-12-20T21:49:48.006Z,100104.20
2022-12-20T21:52:14.678Z,100099.08
2022-12-20T21:54:42.916Z,100103.88
2022-12-20T21:57:10.539Z,100101.36
2022-12-20T21:59:37.797Z,100095.73
2022-12-20T22:02:05.117Z,100095.70
2022-12-20T22:04:32.943Z,100091.55
2022-12-20T22:06:59.654Z,100091.14
2022-12-20T22:09:26.497Z,100083.16
2022-12-20T22:11:53.127Z,100081.16
2022-12-20T22:14:19.890Z,100082.75
2022-12-20T22:16:46.800Z,100084.12
2022-12-20T22:19:14.716Z,100081.56
2022-12-20T22:21:41.440Z,100080.29
2022-12-20T22:24:08.886Z,100077.77
2022-12-20T22:26:36.938Z,100070.72
2022-12-20T22:29:05.143Z,100077.09
2022-12-20T22:31:32.117Z,100078.10
2022-12-20T22:33:59.299Z,100080.38
2022-12-20T22:36:26.350Z,100084.79
2022-12-20T22:38:54.148Z,100086.13
2022-12-20T22:41:28.806Z,100084.07
2022-12-20T22:43:55.860Z,100086.18
2022-12-20T22:46:22.486Z,100084.23
2022-12-20T22:48:49.258Z,100080.13
2022-12-20T22:51:16.864Z,100083.21
2022-12-20T22:53:43.715Z,100079.95
2022-12-20T22:56:10.434Z,100074.70
2022-12-20T22:58:37.376Z,100065.60
2022-12-20T23:01:05.939Z,100059.61
2022-12-20T23:03:32.829Z,100055.65
2022-12-20T23:06:00.831Z,100057.73
2022-12-20T23:08:29.850Z,100058.16
2022-12-20T23:11:15.380Z,100053.21
2022-12-20T23:14:00.730Z,100048.58
2022-12-20T23:16:27.866Z,100042.27
2022-12-20T23:18:59.013Z,100046.91
2022-12-20T23:21:44.210Z,100045.53
2022-12-20T23:24:11.166Z,100036.11
2022-12-20T23:26:38.586Z,100028.46
2022-12-20T23:29:05.950Z,100029.66
2022-12-20T23:31:32.940Z,100021.91
2022-12-20T23:33:59.914Z,100010.98
2022-12-20T23:36:26.501Z,100010.86
2022-12-20T23:38:53.192Z,100014.80
2022-12-20T23:41:19.882Z,100019.55
2022-12-20T23:43:46.633Z,100005.61
2022-12-20T23:46:14.153Z,100018.59
2022-12-20T23:48:41.059Z,100013.27
2022-12-20T23:51:08.194Z,100015.18
2022-12-20T23:53:34.932Z,100013.02
2022-12-20T23:56:09.966Z,100009.04
2022-12-20T23:58:36.782Z,100018.38
